sensor_id;sensor_type;location;lat;lon;timestamp;temperature;humidity
74520;DHT22;63002;48.134;-1.948;2024-02-21T06:01:01;18.40;60.50
74520;DHT22;63002;48.134;-1.948;2024-02-21T06:03:31;18.40;60.50
74520;DHT22;63002;48.134;-1.948;2024-02-21T06:05:57;18.40;60.40
74520;DHT22;63002;48.134;-1.948;2024-02-21T06:08:22;18.40;59.70
74520;DHT22;63002;48.134;-1.948;2024-02-21T06:10:48;18.10;58.80
74520;DHT22;63002;48.134;-1.948;2024-02-21T06:13:14;18.20;59.80
74520;DHT22;63002;48.134;-1.948;2024-02-21T06:15:39;18.30;59.10
74520;DHT22;63002;48.134;-1.948;2024-02-21T06:18:06;18.30;59.30
74520;DHT22;63002;48.134;-1.948;2024-02-21T06:20:36;18.60;60.10
74520;DHT22;63002;48.134;-1.948;2024-02-21T06:23:04;19.10;60.50
74520;DHT22;63002;48.134;-1.948;2024-02-21T06:25:30;19.00;60.20
74520;DHT22;63002;48.134;-1.948;2024-02-21T06:27:55;18.90;60.60
74520;DHT22;63002;48.134;-1.948;2024-02-21T06:30:21;18.90;60.60
74520;DHT22;63002;48.134;-1.948;2024-02-21T06:32:46;18.90;60.50
74520;DHT22;63002;48.134;-1.948;2024-02-21T06:35:12;18.90;60.50
74520;DHT22;63002;48.134;-1.948;2024-02-21T06:37:37;18.90;56.70
74520;DHT22;63002;48.134;-1.948;2024-02-21T06:40:03;18.00;58.90
74520;DHT22;63002;48.134;-1.948;2024-02-21T06:42:29;18.30;60.60
74520;DHT22;63002;48.134;-1.948;2024-02-21T06:44:55;18.60;59.20
74520;DHT22;63002;48.134;-1.948;2024-02-21T06:47:21;18.60;59.20
74520;DHT22;63002;48.134;-1.948;2024-02-21T06:49:50;18.60;59.50
74520;DHT22;63002;48.134;-1.948;2024-02-21T06:52:18;18.60;59.50
74520;DHT22;63002;48.134;-1.948;2024-02-21T06:54:48;18.60;59.60
74520;DHT22;63002;48.134;-1.948;2024-02-21T06:57:13;18.60;59.80
74520;DHT22;63002;48.134;-1.948;2024-02-21T06:59:41;18.60;60.00
74520;DHT22;63002;48.134;-1.948;2024-02-21T07:02:06;18.60;60.20
74520;DHT22;63002;48.134;-1.948;2024-02-21T07:04:33;18.70;60.40
74520;DHT22;63002;48.134;-1.948;2024-02-21T07:06:58;18.70;60.40
74520;DHT22;63002;48.134;-1.948;2024-02-21T07:09:24;18.70;60.50
74520;DHT22;63002;48.134;-1.948;2024-02-21T07:11:50;18.70;60.60
74520;DHT22;63002;48.134;-1.948;2024-02-21T07:14:15;18.70;60.70
74520;DHT22;63002;48.134;-1.948;2024-02-21T07:16:41;18.70;60.70
74520;DHT22;63002;48.134;-1.948;2024-02-21T07:19:06;18.70;60.80
74520;DHT22;63002;48.134;-1.948;2024-02-21T07:21:32;18.70;60.70
74520;DHT22;63002;48.134;-1.948;2024-02-21T07:23:58;18.70;60.80
74520;DHT22;63002;48.134;-1.948;2024-02-21T07:26:23;18.70;60.70
74520;DHT22;63002;48.134;-1.948;2024-02-21T07:28:49;18.70;60.80
74520;DHT22;63002;48.134;-1.948;2024-02-21T07:31:15;18.70;60.90
74520;DHT22;63002;48.134;-1.948;2024-02-21T07:33:41;18.70;60.80
74520;DHT22;63002;48.134;-1.948;2024-02-21T07:36:09;18.70;60.90
74520;DHT22;63002;48.134;-1.948;2024-02-21T07:38:36;18.70;60.80
74520;DHT22;63002;48.134;-1.948;2024-02-21T07:41:02;18.70;60.90
74520;DHT22;63002;48.134;-1.948;2024-02-21T07:43:29;18.70;60.90
74520;DHT22;63002;48.134;-1.948;2024-02-21T07:45:55;18.70;60.80
74520;DHT22;63002;48.134;-1.948;2024-02-21T07:48:21;18.80;60.90
74520;DHT22;63002;48.134;-1.948;2024-02-21T07:50:53;18.70;60.90
74520;DHT22;63002;48.134;-1.948;2024-02-21T07:53:19;18.70;61.00
74520;DHT22;63002;48.134;-1.948;2024-02-21T07:55:45;18.80;61.00
74520;DHT22;63002;48.134;-1.948;2024-02-21T07:58:11;18.80;61.00
74520;DHT22;63002;48.134;-1.948;2024-02-21T08:00:36;18.80;61.00
74520;DHT22;63002;48.134;-1.948;2024-02-21T08:03:02;18.80;61.10
74520;DHT22;63002;48.134;-1.948;2024-02-21T08:05:28;18.80;61.20
74520;DHT22;63002;48.134;-1.948;2024-02-21T08:07:55;18.80;61.20
74520;DHT22;63002;48.134;-1.948;2024-02-21T08:10:21;18.80;61.20
74520;DHT22;63002;48.134;-1.948;2024-02-21T08:12:46;18.80;61.20
74520;DHT22;63002;48.134;-1.948;2024-02-21T08:15:12;18.70;61.30
74520;DHT22;63002;48.134;-1.948;2024-02-21T08:17:37;18.70;61.20
74520;DHT22;63002;48.134;-1.948;2024-02-21T08:20:04;18.80;61.20
74520;DHT22;63002;48.134;-1.948;2024-02-21T08:22:30;18.70;61.20
74520;DHT22;63002;48.134;-1.948;2024-02-21T08:24:55;18.70;61.30
74520;DHT22;63002;48.134;-1.948;2024-02-21T08:27:21;18.70;61.20
74520;DHT22;63002;48.134;-1.948;2024-02-21T08:29:46;18.80;61.20
74520;DHT22;63002;48.134;-1.948;2024-02-21T08:32:12;18.80;61.30
74520;DHT22;63002;48.134;-1.948;2024-02-21T08:34:38;18.70;61.30
74520;DHT22;63002;48.134;-1.948;2024-02-21T08:37:04;18.70;61.30
74520;DHT22;63002;48.134;-1.948;2024-02-21T08:39:29;18.70;61.30
74520;DHT22;63002;48.134;-1.948;2024-02-21T08:41:56;18.70;61.30
74520;DHT22;63002;48.134;-1.948;2024-02-21T08:44:23;18.70;61.30
74520;DHT22;63002;48.134;-1.948;2024-02-21T08:46:49;18.70;61.30
74520;DHT22;63002;48.134;-1.948;2024-02-21T08:49:15;18.70;61.30
74520;DHT22;63002;48.134;-1.948;2024-02-21T08:51:40;18.70;61.40
74520;DHT22;63002;48.134;-1.948;2024-02-21T08:54:06;18.70;61.30
74520;DHT22;63002;48.134;-1.948;2024-02-21T08:56:31;18.70;61.30
74520;DHT22;63002;48.134;-1.948;2024-02-21T08:58:58;18.70;61.40
74520;DHT22;63002;48.134;-1.948;2024-02-21T09:01:23;18.70;61.30
74520;DHT22;63002;48.134;-1.948;2024-02-21T09:03:49;18.70;61.40
74520;DHT22;63002;48.134;-1.948;2024-02-21T09:06:18;18.70;61.30
74520;DHT22;63002;48.134;-1.948;2024-02-21T09:08:45;18.70;61.40
74520;DHT22;63002;48.134;-1.948;2024-02-21T09:11:10;18.70;61.40
74520;DHT22;63002;48.134;-1.948;2024-02-21T09:13:36;18.70;61.40
74520;DHT22;63002;48.134;-1.948;2024-02-21T09:16:02;18.70;61.40
74520;DHT22;63002;48.134;-1.948;2024-02-21T09:18:28;18.70;61.40
74520;DHT22;63002;48.134;-1.948;2024-02-21T09:20:54;18.70;61.40
74520;DHT22;63002;48.134;-1.948;2024-02-21T09:23:20;18.70;61.40
74520;DHT22;63002;48.134;-1.948;2024-02-21T09:25:45;18.70;61.40
74520;DHT22;63002;48.134;-1.948;2024-02-21T09:28:11;18.70;61.40
74520;DHT22;63002;48.134;-1.948;2024-02-21T09:30:38;18.70;61.30
74520;DHT22;63002;48.134;-1.948;2024-02-21T09:33:04;18.70;61.40
74520;DHT22;63002;48.134;-1.948;2024-02-21T09:35:30;18.70;61.30
74520;DHT22;63002;48.134;-1.948;2024-02-21T09:37:56;18.70;61.40
74520;DHT22;63002;48.134;-1.948;2024-02-21T09:40:21;18.70;61.40
74520;DHT22;63002;48.134;-1.948;2024-02-21T09:42:47;18.70;61.30
74520;DHT22;63002;48.134;-1.948;2024-02-21T09:45:17;18.70;61.40
74520;DHT22;63002;48.134;-1.948;2024-02-21T09:50:28;18.70;61.30
74520;DHT22;63002;48.134;-1.948;2024-02-21T09:52:55;18.70;61.40
74520;DHT22;63002;48.134;-1.948;2024-02-21T09:55:22;18.70;61.40
74520;DHT22;63002;48.134;-1.948;2024-02-21T09:57:48;18.70;61.30
74520;DHT22;63002;48.134;-1.948;2024-02-21T10:00:15;18.70;61.40
74520;DHT22;63002;48.134;-1.948;2024-02-21T10:02:47;18.70;61.40
74520;DHT22;63002;48.134;-1.948;2024-02-21T10:05:13;18.70;61.40
74520;DHT22;63002;48.134;-1.948;2024-02-21T10:07:39;18.70;61.40
74520;DHT22;63002;48.134;-1.948;2024-02-21T10:10:05;18.70;61.30
74520;DHT22;63002;48.134;-1.948;2024-02-21T10:12:31;18.70;61.40
74520;DHT22;63002;48.134;-1.948;2024-02-21T10:15:06;18.70;61.30
74520;DHT22;63002;48.134;-1.948;2024-02-21T10:17:34;18.70;61.30
74520;DHT22;63002;48.134;-1.948;2024-02-21T10:20:08;18.70;61.30
74520;DHT22;63002;48.134;-1.948;2024-02-21T10:22:34;18.70;61.30
74520;DHT22;63002;48.134;-1.948;2024-02-21T10:25:10;18.70;61.30
74520;DHT22;63002;48.134;-1.948;2024-02-21T10:27:36;18.70;61.30
74520;DHT22;63002;48.134;-1.948;2024-02-21T10:30:03;18.70;61.30
74520;DHT22;63002;48.134;-1.948;2024-02-21T10:32:29;18.70;61.30
74520;DHT22;63002;48.134;-1.948;2024-02-21T10:35:02;18.70;61.30
74520;DHT22;63002;48.134;-1.948;2024-02-21T10:37:31;18.70;61.30
74520;DHT22;63002;48.134;-1.948;2024-02-21T10:40:00;18.70;61.30
74520;DHT22;63002;48.134;-1.948;2024-02-21T10:42:27;18.70;61.20
74520;DHT22;63002;48.134;-1.948;2024-02-21T10:44:54;18.70;61.30
74520;DHT22;63002;48.134;-1.948;2024-02-21T10:47:21;18.70;61.30
74520;DHT22;63002;48.134;-1.948;2024-02-21T10:49:49;18.70;61.30
74520;DHT22;63002;48.134;-1.948;2024-02-21T10:57:15;18.70;61.20
74520;DHT22;63002;48.134;-1.948;2024-02-21T10:59:41;18.70;61.30
74520;DHT22;63002;48.134;-1.948;2024-02-21T11:02:08;18.70;61.30
74520;DHT22;63002;48.134;-1.948;2024-02-21T11:04:33;18.70;61.30
74520;DHT22;63002;48.134;-1.948;2024-02-21T11:07:05;18.70;61.20
74520;DHT22;63002;48.134;-1.948;2024-02-21T11:09:31;18.60;59.10
74520;DHT22;63002;48.134;-1.948;2024-02-21T11:11:58;18.40;61.10
74520;DHT22;63002;48.134;-1.948;2024-02-21T11:14:26;18.50;61.30
74520;DHT22;63002;48.134;-1.948;2024-02-21T11:16:52;18.80;60.80
74520;DHT22;63002;48.134;-1.948;2024-02-21T11:21:43;19.20;60.00
74520;DHT22;63002;48.134;-1.948;2024-02-21T11:24:09;19.20;60.10
74520;DHT22;63002;48.134;-1.948;2024-02-21T11:26:36;19.00;60.40
74520;DHT22;63002;48.134;-1.948;2024-02-21T11:29:02;18.90;60.00
74520;DHT22;63002;48.134;-1.948;2024-02-21T11:32:02;18.80;60.90
74520;DHT22;63002;48.134;-1.948;2024-02-21T11:34:21;18.90;60.70
74520;DHT22;63002;48.134;-1.948;2024-02-21T11:36:50;18.80;61.00
74520;DHT22;63002;48.134;-1.948;2024-02-21T11:39:26;18.80;61.30
74520;DHT22;63002;48.134;-1.948;2024-02-21T11:42:01;18.80;61.40
74520;DHT22;63002;48.134;-1.948;2024-02-21T11:44:27;18.80;61.50
74520;DHT22;63002;48.134;-1.948;2024-02-21T11:46:52;18.50;59.40
74520;DHT22;63002;48.134;-1.948;2024-02-21T11:49:18;18.50;61.20
74520;DHT22;63002;48.134;-1.948;2024-02-21T11:51:43;18.70;61.90
74520;DHT22;63002;48.134;-1.948;2024-02-21T11:54:10;19.00;62.00
74520;DHT22;63002;48.134;-1.948;2024-02-21T11:56:36;19.00;61.50
74520;DHT22;63002;48.134;-1.948;2024-02-21T11:59:01;19.10;62.70
74520;DHT22;63002;48.134;-1.948;2024-02-21T12:01:27;19.20;62.80
74520;DHT22;63002;48.134;-1.948;2024-02-21T12:03:53;19.30;62.60
74520;DHT22;63002;48.134;-1.948;2024-02-21T12:06:20;19.20;62.70
74520;DHT22;63002;48.134;-1.948;2024-02-21T12:08:47;19.00;63.00
74520;DHT22;63002;48.134;-1.948;2024-02-21T12:11:17;19.00;63.10
74520;DHT22;63002;48.134;-1.948;2024-02-21T12:13:43;18.90;63.00
74520;DHT22;63002;48.134;-1.948;2024-02-21T12:16:09;18.90;62.90
74520;DHT22;63002;48.134;-1.948;2024-02-21T12:18:34;18.90;62.90
74520;DHT22;63002;48.134;-1.948;2024-02-21T12:21:00;18.90;62.90
74520;DHT22;63002;48.134;-1.948;2024-02-21T12:23:27;18.90;62.80
74520;DHT22;63002;48.134;-1.948;2024-02-21T12:25:52;18.90;62.80
74520;DHT22;63002;48.134;-1.948;2024-02-21T12:28:20;18.90;62.70
74520;DHT22;63002;48.134;-1.948;2024-02-21T12:30:47;18.90;62.60
74520;DHT22;63002;48.134;-1.948;2024-02-21T12:33:12;18.90;62.60
74520;DHT22;63002;48.134;-1.948;2024-02-21T12:35:39;19.00;62.40
74520;DHT22;63002;48.134;-1.948;2024-02-21T12:38:05;18.90;62.50
74520;DHT22;63002;48.134;-1.948;2024-02-21T12:40:30;18.90;62.50
74520;DHT22;63002;48.134;-1.948;2024-02-21T12:43:00;18.90;62.50
74520;DHT22;63002;48.134;-1.948;2024-02-21T12:45:28;18.70;60.80
74520;DHT22;63002;48.134;-1.948;2024-02-21T12:47:54;18.70;62.10
74520;DHT22;63002;48.134;-1.948;2024-02-21T12:50:19;18.70;61.20
74520;DHT22;63002;48.134;-1.948;2024-02-21T12:52:45;18.90;62.40
74520;DHT22;63002;48.134;-1.948;2024-02-21T12:55:11;19.30;62.20
74520;DHT22;63002;48.134;-1.948;2024-02-21T12:57:38;19.50;61.90
74520;DHT22;63002;48.134;-1.948;2024-02-21T13:00:06;19.50;61.90
74520;DHT22;63002;48.134;-1.948;2024-02-21T13:02:37;19.60;61.90
74520;DHT22;63002;48.134;-1.948;2024-02-21T13:05:02;19.60;61.80
74520;DHT22;63002;48.134;-1.948;2024-02-21T13:07:28;19.70;61.60
74520;DHT22;63002;48.134;-1.948;2024-02-21T13:09:54;19.60;61.60
74520;DHT22;63002;48.134;-1.948;2024-02-21T13:12:20;19.40;62.00
74520;DHT22;63002;48.134;-1.948;2024-02-21T13:14:45;19.30;62.20
74520;DHT22;63002;48.134;-1.948;2024-02-21T13:17:11;19.30;62.30
74520;DHT22;63002;48.134;-1.948;2024-02-21T13:19:37;19.20;62.40
74520;DHT22;63002;48.134;-1.948;2024-02-21T13:22:02;19.20;62.40
74520;DHT22;63002;48.134;-1.948;2024-02-21T13:24:29;19.20;62.30
74520;DHT22;63002;48.134;-1.948;2024-02-21T13:26:54;19.10;62.40
74520;DHT22;63002;48.134;-1.948;2024-02-21T13:29:20;19.10;62.40
74520;DHT22;63002;48.134;-1.948;2024-02-21T13:31:46;19.10;62.30
74520;DHT22;63002;48.134;-1.948;2024-02-21T13:34:11;19.10;62.30
74520;DHT22;63002;48.134;-1.948;2024-02-21T13:36:37;19.10;62.30
74520;DHT22;63002;48.134;-1.948;2024-02-21T13:39:03;19.10;62.20
74520;DHT22;63002;48.134;-1.948;2024-02-21T13:41:30;19.10;62.30
74520;DHT22;63002;48.134;-1.948;2024-02-21T13:43:56;19.10;62.30
74520;DHT22;63002;48.134;-1.948;2024-02-21T13:46:22;19.10;62.30
74520;DHT22;63002;48.134;-1.948;2024-02-21T13:48:47;19.10;62.20
74520;DHT22;63002;48.134;-1.948;2024-02-21T13:51:13;19.10;62.30
74520;DHT22;63002;48.134;-1.948;2024-02-21T13:53:38;19.10;62.20
74520;DHT22;63002;48.134;-1.948;2024-02-21T13:56:05;19.10;62.20
74520;DHT22;63002;48.134;-1.948;2024-02-21T13:58:31;19.10;62.20
74520;DHT22;63002;48.134;-1.948;2024-02-21T14:00:56;19.00;62.10
74520;DHT22;63002;48.134;-1.948;2024-02-21T14:03:22;19.10;62.20
74520;DHT22;63002;48.134;-1.948;2024-02-21T14:05:47;19.00;62.10
74520;DHT22;63002;48.134;-1.948;2024-02-21T14:08:16;19.00;62.10
74520;DHT22;63002;48.134;-1.948;2024-02-21T14:10:42;19.00;62.10
74520;DHT22;63002;48.134;-1.948;2024-02-21T14:13:08;19.00;62.10
74520;DHT22;63002;48.134;-1.948;2024-02-21T14:15:33;19.00;62.10
74520;DHT22;63002;48.134;-1.948;2024-02-21T14:17:59;19.00;62.10
74520;DHT22;63002;48.134;-1.948;2024-02-21T14:20:25;19.00;62.10
74520;DHT22;63002;48.134;-1.948;2024-02-21T14:22:50;19.00;62.10
74520;DHT22;63002;48.134;-1.948;2024-02-21T14:25:16;19.00;62.10
74520;DHT22;63002;48.134;-1.948;2024-02-21T14:27:42;19.00;62.10
74520;DHT22;63002;48.134;-1.948;2024-02-21T14:30:09;19.00;62.10
74520;DHT22;63002;48.134;-1.948;2024-02-21T14:32:36;19.00;62.10
74520;DHT22;63002;48.134;-1.948;2024-02-21T14:35:02;19.00;62.10
74520;DHT22;63002;48.134;-1.948;2024-02-21T14:37:27;19.00;62.10
74520;DHT22;63002;48.134;-1.948;2024-02-21T14:39:53;19.00;62.10
74520;DHT22;63002;48.134;-1.948;2024-02-21T14:42:19;19.00;62.10
74520;DHT22;63002;48.134;-1.948;2024-02-21T14:44:44;19.00;62.10
74520;DHT22;63002;48.134;-1.948;2024-02-21T14:47:10;19.00;62.10
74520;DHT22;63002;48.134;-1.948;2024-02-21T14:49:35;19.00;62.10
74520;DHT22;63002;48.134;-1.948;2024-02-21T14:52:01;19.00;62.10
74520;DHT22;63002;48.134;-1.948;2024-02-21T14:54:28;19.00;62.00
74520;DHT22;63002;48.134;-1.948;2024-02-21T14:56:53;19.00;62.00
74520;DHT22;63002;48.134;-1.948;2024-02-21T14:59:19;19.00;62.00
74520;DHT22;63002;48.134;-1.948;2024-02-21T15:01:45;19.00;62.00
74520;DHT22;63002;48.134;-1.948;2024-02-21T15:04:11;19.00;62.00
74520;DHT22;63002;48.134;-1.948;2024-02-21T15:06:36;19.00;62.00
74520;DHT22;63002;48.134;-1.948;2024-02-21T15:09:03;19.00;62.00
74520;DHT22;63002;48.134;-1.948;2024-02-21T15:11:29;19.00;62.00
74520;DHT22;63002;48.134;-1.948;2024-02-21T15:13:54;19.00;62.10
74520;DHT22;63002;48.134;-1.948;2024-02-21T15:16:20;19.00;61.40
74520;DHT22;63002;48.134;-1.948;2024-02-21T15:18:45;18.90;61.60
74520;DHT22;63002;48.134;-1.948;2024-02-21T15:21:11;18.90;62.00
74520;DHT22;63002;48.134;-1.948;2024-02-21T15:23:39;18.90;62.10
74520;DHT22;63002;48.134;-1.948;2024-02-21T15:26:05;18.90;62.10
74520;DHT22;63002;48.134;-1.948;2024-02-21T15:28:31;18.90;62.10
74520;DHT22;63002;48.134;-1.948;2024-02-21T15:30:57;19.00;62.10
74520;DHT22;63002;48.134;-1.948;2024-02-21T15:33:23;18.90;62.10
74520;DHT22;63002;48.134;-1.948;2024-02-21T15:35:48;18.90;62.00
74520;DHT22;63002;48.134;-1.948;2024-02-21T15:38:14;18.90;62.00
74520;DHT22;63002;48.134;-1.948;2024-02-21T15:40:39;18.90;62.00
74520;DHT22;63002;48.134;-1.948;2024-02-21T15:43:05;18.90;62.00
74520;DHT22;63002;48.134;-1.948;2024-02-21T15:45:31;18.90;62.10
74520;DHT22;63002;48.134;-1.948;2024-02-21T15:47:57;18.90;62.10
74520;DHT22;63002;48.134;-1.948;2024-02-21T15:50:22;18.90;62.10
74520;DHT22;63002;48.134;-1.948;2024-02-21T15:52:48;18.90;62.10
74520;DHT22;63002;48.134;-1.948;2024-02-21T15:55:13;18.90;62.20
74520;DHT22;63002;48.134;-1.948;2024-02-21T15:57:39;18.90;62.20
74520;DHT22;63002;48.134;-1.948;2024-02-21T16:00:06;18.90;62.20
74520;DHT22;63002;48.134;-1.948;2024-02-21T16:02:37;18.90;62.20
74520;DHT22;63002;48.134;-1.948;2024-02-21T16:05:03;18.90;62.20
74520;DHT22;63002;48.134;-1.948;2024-02-21T16:07:34;18.90;62.20
74520;DHT22;63002;48.134;-1.948;2024-02-21T16:09:59;18.90;62.20
74520;DHT22;63002;48.134;-1.948;2024-02-21T16:12:26;18.90;62.20
74520;DHT22;63002;48.134;-1.948;2024-02-21T16:14:52;18.90;62.10
74520;DHT22;63002;48.134;-1.948;2024-02-21T16:17:18;18.90;62.10
74520;DHT22;63002;48.134;-1.948;2024-02-21T16:19:43;18.90;62.20
74520;DHT22;63002;48.134;-1.948;2024-02-21T16:22:09;18.90;62.20
74520;DHT22;63002;48.134;-1.948;2024-02-21T16:24:34;18.90;62.10
74520;DHT22;63002;48.134;-1.948;2024-02-21T16:27:01;18.90;62.20
74520;DHT22;63002;48.134;-1.948;2024-02-21T16:29:34;18.90;62.10
74520;DHT22;63002;48.134;-1.948;2024-02-21T16:32:00;18.90;62.10
74520;DHT22;63002;48.134;-1.948;2024-02-21T16:34:26;18.90;62.10
74520;DHT22;63002;48.134;-1.948;2024-02-21T16:36:52;18.90;62.10
74520;DHT22;63002;48.134;-1.948;2024-02-21T16:39:17;18.90;62.10
74520;DHT22;63002;48.134;-1.948;2024-02-21T16:41:49;18.90;62.20
74520;DHT22;63002;48.134;-1.948;2024-02-21T16:44:21;18.90;62.10
74520;DHT22;63002;48.134;-1.948;2024-02-21T16:46:47;18.90;62.20
74520;DHT22;63002;48.134;-1.948;2024-02-21T16:49:13;18.90;62.10
74520;DHT22;63002;48.134;-1.948;2024-02-21T16:51:39;18.90;62.10
74520;DHT22;63002;48.134;-1.948;2024-02-21T16:54:04;18.90;62.20
74520;DHT22;63002;48.134;-1.948;2024-02-21T16:56:34;18.90;62.20
74520;DHT22;63002;48.134;-1.948;2024-02-21T16:59:01;18.90;62.10
74520;DHT22;63002;48.134;-1.948;2024-02-21T17:01:27;18.90;62.20
74520;DHT22;63002;48.134;-1.948;2024-02-21T17:03:54;18.90;62.20
74520;DHT22;63002;48.134;-1.948;2024-02-21T17:06:19;18.90;62.10
74520;DHT22;63002;48.134;-1.948;2024-02-21T17:08:45;18.90;62.10
74520;DHT22;63002;48.134;-1.948;2024-02-21T17:11:11;18.90;62.20
74520;DHT22;63002;48.134;-1.948;2024-02-21T17:13:37;18.90;62.10
74520;DHT22;63002;48.134;-1.948;2024-02-21T17:16:02;18.90;62.10
74520;DHT22;63002;48.134;-1.948;2024-02-21T17:18:29;18.90;62.20
74520;DHT22;63002;48.134;-1.948;2024-02-21T17:20:55;18.80;61.20
74520;DHT22;63002;48.134;-1.948;2024-02-21T17:23:20;18.40;61.80
74520;DHT22;63002;48.134;-1.948;2024-02-21T17:25:46;18.50;62.60
74520;DHT22;63002;48.134;-1.948;2024-02-21T17:28:13;18.60;62.20
74520;DHT22;63002;48.134;-1.948;2024-02-21T17:30:39;18.70;61.10
74520;DHT22;63002;48.134;-1.948;2024-02-21T17:33:05;18.60;61.90
74520;DHT22;63002;48.134;-1.948;2024-02-21T17:35:32;18.60;62.40
74520;DHT22;63002;48.134;-1.948;2024-02-21T17:38:03;18.70;61.90
74520;DHT22;63002;48.134;-1.948;2024-02-21T17:40:31;18.80;61.80
74520;DHT22;63002;48.134;-1.948;2024-02-21T17:42:56;18.80;61.90
74520;DHT22;63002;48.134;-1.948;2024-02-21T17:45:22;18.80;62.00
74520;DHT22;63002;48.134;-1.948;2024-02-21T17:47:48;18.80;62.00
74520;DHT22;63002;48.134;-1.948;2024-02-21T17:50:14;18.80;62.10
74520;DHT22;63002;48.134;-1.948;2024-02-21T17:52:40;18.80;62.10
74520;DHT22;63002;48.134;-1.948;2024-02-21T17:55:06;18.80;62.20
74520;DHT22;63002;48.134;-1.948;2024-02-21T17:57:32;18.80;62.10
74520;DHT22;63002;48.134;-1.948;2024-02-21T17:59:57;18.80;62.20
74520;DHT22;63002;48.134;-1.948;2024-02-21T18:02:24;18.80;62.10
74520;DHT22;63002;48.134;-1.948;2024-02-21T18:04:50;18.80;62.10
74520;DHT22;63002;48.134;-1.948;2024-02-21T18:07:15;18.80;62.10
74520;DHT22;63002;48.134;-1.948;2024-02-21T18:09:41;18.80;62.10
74520;DHT22;63002;48.134;-1.948;2024-02-21T18:12:07;18.80;61.90
74520;DHT22;63002;48.134;-1.948;2024-02-21T18:14:33;18.80;62.10
74520;DHT22;63002;48.134;-1.948;2024-02-21T18:16:58;18.80;62.00
74520;DHT22;63002;48.134;-1.948;2024-02-21T18:19:24;18.80;62.10
74520;DHT22;63002;48.134;-1.948;2024-02-21T18:21:50;18.80;62.20
74520;DHT22;63002;48.134;-1.948;2024-02-21T18:24:16;18.90;62.10
74520;DHT22;63002;48.134;-1.948;2024-02-21T18:26:41;18.90;62.20
74520;DHT22;63002;48.134;-1.948;2024-02-21T18:29:07;18.90;62.20
74520;DHT22;63002;48.134;-1.948;2024-02-21T18:31:34;18.90;62.30
74520;DHT22;63002;48.134;-1.948;2024-02-21T18:33:59;18.90;62.20
74520;DHT22;63002;48.134;-1.948;2024-02-21T18:36:28;18.90;62.20
74520;DHT22;63002;48.134;-1.948;2024-02-21T18:38:54;18.90;62.10
74520;DHT22;63002;48.134;-1.948;2024-02-21T18:41:21;18.90;62.10
74520;DHT22;63002;48.134;-1.948;2024-02-21T18:43:47;18.90;62.10
74520;DHT22;63002;48.134;-1.948;2024-02-21T18:46:13;18.90;62.20
74520;DHT22;63002;48.134;-1.948;2024-02-21T18:48:39;18.90;62.20
74520;DHT22;63002;48.134;-1.948;2024-02-21T18:51:14;18.90;62.20
74520;DHT22;63002;48.134;-1.948;2024-02-21T18:53:40;18.90;62.20
74520;DHT22;63002;48.134;-1.948;2024-02-21T18:56:06;18.90;62.30
74520;DHT22;63002;48.134;-1.948;2024-02-21T18:58:32;19.20;63.10
74520;DHT22;63002;48.134;-1.948;2024-02-21T19:00:58;19.30;63.20
74520;DHT22;63002;48.134;-1.948;2024-02-21T19:03:24;19.40;63.40
74520;DHT22;63002;48.134;-1.948;2024-02-21T19:05:50;19.50;63.40
74520;DHT22;63002;48.134;-1.948;2024-02-21T19:08:15;19.40;62.60
74520;DHT22;63002;48.134;-1.948;2024-02-21T19:10:41;19.40;62.80
74520;DHT22;63002;48.134;-1.948;2024-02-21T19:13:07;19.40;62.70
74520;DHT22;63002;48.134;-1.948;2024-02-21T19:15:34;19.30;62.80
74520;DHT22;63002;48.134;-1.948;2024-02-21T19:18:01;19.30;62.80
74520;DHT22;63002;48.134;-1.948;2024-02-21T19:20:26;19.20;62.90
74520;DHT22;63002;48.134;-1.948;2024-02-21T19:22:52;19.20;62.90
74520;DHT22;63002;48.134;-1.948;2024-02-21T19:25:17;19.20;62.90
74520;DHT22;63002;48.134;-1.948;2024-02-21T19:27:49;18.90;62.10
74520;DHT22;63002;48.134;-1.948;2024-02-21T19:30:15;18.90;62.90
74520;DHT22;63002;48.134;-1.948;2024-02-21T19:32:41;19.00;62.70
74520;DHT22;63002;48.134;-1.948;2024-02-21T19:35:07;19.00;63.00
74520;DHT22;63002;48.134;-1.948;2024-02-21T19:37:39;19.10;62.90
74520;DHT22;63002;48.134;-1.948;2024-02-21T19:40:06;19.10;62.90
74520;DHT22;63002;48.134;-1.948;2024-02-21T19:42:31;18.90;61.90
74520;DHT22;63002;48.134;-1.948;2024-02-21T19:44:57;18.90;62.70
74520;DHT22;63002;48.134;-1.948;2024-02-21T19:47:23;18.70;62.70
74520;DHT22;63002;48.134;-1.948;2024-02-21T19:49:48;18.80;62.80
74520;DHT22;63002;48.134;-1.948;2024-02-21T19:52:14;18.90;63.20
74520;DHT22;63002;48.134;-1.948;2024-02-21T19:54:40;18.90;63.20
74520;DHT22;63002;48.134;-1.948;2024-02-21T19:57:06;19.00;63.00
74520;DHT22;63002;48.134;-1.948;2024-02-21T19:59:31;19.10;62.90
74520;DHT22;63002;48.134;-1.948;2024-02-21T20:01:58;19.10;62.80
74520;DHT22;63002;48.134;-1.948;2024-02-21T20:04:25;19.10;62.70
74520;DHT22;63002;48.134;-1.948;2024-02-21T20:06:50;19.00;61.80
74520;DHT22;63002;48.134;-1.948;2024-02-21T20:09:18;19.00;62.60
74520;DHT22;63002;48.134;-1.948;2024-02-21T20:11:43;19.00;62.60
74520;DHT22;63002;48.134;-1.948;2024-02-21T20:14:09;19.00;62.50
74520;DHT22;63002;48.134;-1.948;2024-02-21T20:16:35;19.10;62.60
74520;DHT22;63002;48.134;-1.948;2024-02-21T20:19:02;19.10;62.30
74520;DHT22;63002;48.134;-1.948;2024-02-21T20:21:27;19.10;62.30
74520;DHT22;63002;48.134;-1.948;2024-02-21T20:23:53;19.10;62.40
74520;DHT22;63002;48.134;-1.948;2024-02-21T20:26:18;19.10;62.40
74520;DHT22;63002;48.134;-1.948;2024-02-21T20:28:44;19.10;62.40
74520;DHT22;63002;48.134;-1.948;2024-02-21T20:31:09;19.10;62.50
74520;DHT22;63002;48.134;-1.948;2024-02-21T20:33:35;19.10;62.50
74520;DHT22;63002;48.134;-1.948;2024-02-21T20:36:01;19.10;62.40
74520;DHT22;63002;48.134;-1.948;2024-02-21T20:38:26;19.20;62.50
74520;DHT22;63002;48.134;-1.948;2024-02-21T20:40:52;19.10;62.40
74520;DHT22;63002;48.134;-1.948;2024-02-21T20:43:18;19.10;62.50
74520;DHT22;63002;48.134;-1.948;2024-02-21T20:45:44;19.10;62.50
74520;DHT22;63002;48.134;-1.948;2024-02-21T20:48:10;19.10;62.60
74520;DHT22;63002;48.134;-1.948;2024-02-21T20:50:35;19.20;62.60
74520;DHT22;63002;48.134;-1.948;2024-02-21T20:53:01;19.20;62.50
74520;DHT22;63002;48.134;-1.948;2024-02-21T20:55:29;19.10;62.60
74520;DHT22;63002;48.134;-1.948;2024-02-21T20:57:56;19.10;62.50
74520;DHT22;63002;48.134;-1.948;2024-02-21T21:00:22;19.10;62.60
74520;DHT22;63002;48.134;-1.948;2024-02-21T21:02:47;19.10;62.60
74520;DHT22;63002;48.134;-1.948;2024-02-21T21:05:14;19.10;62.70
74520;DHT22;63002;48.134;-1.948;2024-02-21T21:07:40;19.10;62.70
74520;DHT22;63002;48.134;-1.948;2024-02-21T21:10:06;19.10;62.70
74520;DHT22;63002;48.134;-1.948;2024-02-21T21:12:35;19.10;62.70
74520;DHT22;63002;48.134;-1.948;2024-02-21T21:15:01;19.10;62.70
74520;DHT22;63002;48.134;-1.948;2024-02-21T21:17:30;19.10;62.60
74520;DHT22;63002;48.134;-1.948;2024-02-21T21:19:55;19.10;62.60